createdAt,value
2023-03-05T00:01:53.617Z,2.58
2023-03-05T00:04:21.386Z,2.53
2023-03-05T00:06:48.454Z,2.40
2023-03-05T00:09:15.496Z,1.65
2023-03-05T00:11:42.688Z,1.70
2023-03-05T00:14:10.762Z,3.40
2023-03-05T00:16:37.726Z,2.10
2023-03-05T00:19:05.362Z,2.15
2023-03-05T00:21:33.620Z,1.90
2023-03-05T00:24:01.502Z,2.17
2023-03-05T00:26:28.935Z,2.50
2023-03-05T00:28:56.726Z,1.55
2023-03-05T00:31:25.149Z,2.30
2023-03-05T00:31:47.199Z,2.20
2023-03-05T00:33:56.050Z,2.10
2023-03-05T00:34:16.160Z,1.97
2023-03-05T00:36:24.308Z,1.83
2023-03-05T00:38:51.672Z,2.08
2023-03-05T00:41:18.729Z,1.83
2023-03-05T00:41:52.079Z,2.10
2023-03-05T00:43:45.950Z,1.70
2023-03-05T00:44:20.974Z,2.60
2023-03-05T00:46:12.976Z,2.15
2023-03-05T00:46:50.804Z,2.63
2023-03-05T00:48:39.952Z,1.23
2023-03-05T00:51:06.933Z,2.08
2023-03-05T00:51:52.124Z,2.10
2023-03-05T00:53:33.972Z,2.60
2023-03-05T00:54:20.353Z,2.17
2023-03-05T00:56:00.913Z,2.10
2023-03-05T00:58:28.039Z,1.83
2023-03-05T00:59:22.188Z,2.00
2023-03-05T01:00:58.024Z,1.30
2023-03-05T01:01:51.806Z,3.10
2023-03-05T01:03:25.199Z,1.98
2023-03-05T01:04:20.002Z,2.00
2023-03-05T01:05:52.096Z,2.08
2023-03-05T01:08:19.749Z,1.80
2023-03-05T01:09:21.723Z,2.27
2023-03-05T01:10:46.696Z,1.35
2023-03-05T01:13:13.670Z,1.10
2023-03-05T01:14:23.111Z,3.43
2023-03-05T01:15:40.611Z,1.45
2023-03-05T01:16:52.680Z,2.20
2023-03-05T01:18:07.874Z,1.73
2023-03-05T01:20:34.943Z,1.67
2023-03-05T01:23:02.031Z,1.88
2023-03-05T01:25:29.290Z,1.83
2023-03-05T01:27:01.558Z,1.83
2023-03-05T01:27:56.210Z,1.35
2023-03-05T01:29:29.712Z,2.13
2023-03-05T01:30:23.239Z,1.58
2023-03-05T01:32:50.156Z,1.58
2023-03-05T01:35:18.864Z,0.95
2023-03-05T01:37:45.932Z,2.25
2023-03-05T01:40:13.930Z,1.98
2023-03-05T01:42:01.385Z,3.00
2023-03-05T01:42:40.851Z,1.17
2023-03-05T01:44:30.635Z,2.00
2023-03-05T01:45:08.006Z,1.65
2023-03-05T01:47:00.137Z,2.17
2023-03-05T01:47:34.985Z,1.70
2023-03-05T01:50:02.176Z,1.30
2023-03-05T01:52:30.262Z,1.90
2023-03-05T01:54:42.146Z,1.60
2023-03-05T01:54:59.559Z,2.10
2023-03-05T01:57:11.815Z,2.47
2023-03-05T01:57:32.944Z,2.72
2023-03-05T01:59:40.935Z,1.83
2023-03-05T02:00:02.781Z,1.98
2023-03-05T02:02:10.869Z,1.80
2023-03-05T02:02:30.279Z,1.85
2023-03-05T02:04:43.554Z,1.70
2023-03-05T02:05:03.703Z,2.20
2023-03-05T02:07:12.590Z,2.30
2023-03-05T02:07:31.391Z,1.70
2023-03-05T02:09:41.183Z,1.80
2023-03-05T02:09:58.397Z,2.50
2023-03-05T02:12:10.668Z,2.00
2023-03-05T02:12:26.014Z,2.20
2023-03-05T02:14:39.517Z,1.50
2023-03-05T02:14:59.037Z,1.38
2023-03-05T02:17:27.759Z,1.60
2023-03-05T02:19:55.895Z,2.15
2023-03-05T02:22:24.038Z,1.80
2023-03-05T02:24:51.676Z,1.70
2023-03-05T02:27:19.782Z,1.88
2023-03-05T02:27:35.595Z,2.10
2023-03-05T02:29:47.083Z,1.80
2023-03-05T02:30:03.811Z,1.90
2023-03-05T02:32:14.697Z,2.65
2023-03-05T02:32:32.011Z,2.10
2023-03-05T02:34:41.948Z,2.10
2023-03-05T02:35:00.221Z,1.70
2023-03-05T02:37:10.160Z,2.67
2023-03-05T02:39:37.736Z,1.73
2023-03-05T02:42:04.791Z,2.22
2023-03-05T02:42:33.407Z,1.60
2023-03-05T02:44:31.772Z,2.00
2023-03-05T02:45:01.855Z,2.80
2023-03-05T02:46:58.944Z,1.38
2023-03-05T02:47:30.123Z,2.30
2023-03-05T02:49:25.922Z,2.05
2023-03-05T02:51:53.060Z,1.98
2023-03-05T02:52:33.152Z,1.73
2023-03-05T02:54:20.094Z,2.00
2023-03-05T02:55:01.553Z,1.70
2023-03-05T02:56:47.047Z,1.60
2023-03-05T02:59:14.028Z,1.83
2023-03-05T03:01:40.999Z,2.90
2023-03-05T03:02:36.147Z,2.10
2023-03-05T03:04:07.984Z,1.75
2023-03-05T03:06:35.220Z,1.85
2023-03-05T03:09:02.199Z,1.83
2023-03-05T03:10:12.636Z,2.33
2023-03-05T03:11:29.195Z,1.70
2023-03-05T03:12:40.961Z,2.03
2023-03-05T03:13:56.157Z,2.30
2023-03-05T03:15:10.302Z,1.60
2023-03-05T03:16:23.219Z,1.60
2023-03-05T03:18:50.197Z,3.20
2023-03-05T03:20:14.001Z,2.20
2023-03-05T03:21:18.187Z,2.42
2023-03-05T03:22:44.129Z,2.43
2023-03-05T03:23:45.132Z,2.28
2023-03-05T03:26:12.178Z,1.92
2023-03-05T03:28:39.169Z,2.25
2023-03-05T03:31:06.220Z,1.85
2023-03-05T03:32:53.166Z,2.30
2023-03-05T03:33:33.247Z,2.15
2023-03-05T03:36:00.426Z,2.33
2023-03-05T03:37:55.766Z,2.13
2023-03-05T03:38:27.455Z,2.22
2023-03-05T03:40:24.074Z,2.17
2023-03-05T03:40:54.369Z,2.55
2023-03-05T03:42:52.707Z,2.00
2023-03-05T03:43:21.394Z,1.70
2023-03-05T03:45:21.491Z,1.73
2023-03-05T03:45:48.544Z,1.70
2023-03-05T03:48:15.549Z,1.80
2023-03-05T03:50:24.874Z,1.90
2023-03-05T03:50:42.934Z,1.70
2023-03-05T03:52:52.944Z,2.07
2023-03-05T03:53:15.574Z,1.80
2023-03-05T03:55:22.432Z,1.83
2023-03-05T03:55:42.960Z,1.67
2023-03-05T03:58:10.214Z,1.75
2023-03-05T04:00:23.946Z,1.60
2023-03-05T04:00:37.178Z,1.40
2023-03-05T04:02:52.164Z,2.37
2023-03-05T04:03:04.162Z,1.33
2023-03-05T04:05:20.533Z,3.70
2023-03-05T04:05:31.102Z,1.35
2023-03-05T04:07:48.724Z,2.20
2023-03-05T04:07:58.492Z,1.58
2023-03-05T04:10:17.023Z,1.80
2023-03-05T04:10:25.591Z,2.30
2023-03-05T04:12:52.565Z,1.88
2023-03-05T04:15:19.509Z,2.00
2023-03-05T04:15:19.752Z,2.20
2023-03-05T04:17:46.441Z,2.65
2023-03-05T04:17:47.912Z,2.60
2023-03-05T04:20:13.619Z,2.60
2023-03-05T04:22:40.677Z,2.28
2023-03-05T04:25:08.307Z,1.98
2023-03-05T04:25:22.299Z,2.10
2023-03-05T04:27:36.245Z,2.00
2023-03-05T04:30:03.275Z,1.95
2023-03-05T04:32:30.233Z,1.80
2023-03-05T04:32:57.986Z,1.83
2023-03-05T04:34:57.636Z,1.95
2023-03-05T04:37:25.532Z,1.60
2023-03-05T04:39:52.934Z,2.10
2023-03-05T04:42:21.011Z,1.80
2023-03-05T04:43:07.395Z,2.20
2023-03-05T04:44:49.196Z,2.20
2023-03-05T04:45:35.838Z,2.23
2023-03-05T04:47:16.215Z,2.05
2023-03-05T04:49:43.267Z,1.52
2023-03-05T04:50:37.148Z,1.70
2023-03-05T04:52:11.625Z,1.40
2023-03-05T04:54:38.714Z,1.88
2023-03-05T04:55:38.422Z,2.00
2023-03-05T04:57:05.842Z,1.42
2023-03-05T04:58:07.922Z,2.00
2023-03-05T04:59:32.878Z,1.58
2023-03-05T05:02:00.134Z,1.90
2023-03-05T05:03:08.966Z,2.37
2023-03-05T05:04:27.239Z,1.70
2023-03-05T05:05:37.652Z,3.30
2023-03-05T05:06:57.657Z,1.27
2023-03-05T05:08:06.025Z,1.80
2023-03-05T05:09:25.592Z,1.23
2023-03-05T05:11:52.548Z,1.40
2023-03-05T05:14:19.691Z,1.73
2023-03-05T05:16:46.706Z,1.50
2023-03-05T05:18:15.337Z,1.90
2023-03-05T05:19:13.809Z,1.50
2023-03-05T05:20:43.489Z,2.90
2023-03-05T05:21:40.798Z,1.17
2023-03-05T05:23:11.677Z,2.27
2023-03-05T05:24:08.010Z,1.63
2023-03-05T05:25:39.855Z,2.13
2023-03-05T05:26:35.010Z,1.88
2023-03-05T05:28:09.393Z,2.43
2023-03-05T05:29:01.975Z,1.77
2023-03-05T05:30:37.580Z,1.80
2023-03-05T05:31:28.943Z,1.40
2023-03-05T05:33:05.798Z,1.87
2023-03-05T05:33:56.050Z,1.63
2023-03-05T05:35:34.102Z,1.60
2023-03-05T05:36:23.038Z,1.10
2023-03-05T05:38:50.089Z,1.15
2023-03-05T05:40:35.456Z,2.63
2023-03-05T05:41:18.107Z,1.75
2023-03-05T05:43:03.637Z,2.93
2023-03-05T05:43:45.601Z,1.08
2023-03-05T05:45:33.343Z,2.40
2023-03-05T05:46:13.895Z,1.20
2023-03-05T05:48:01.566Z,2.50
2023-03-05T05:48:41.043Z,1.23
2023-03-05T05:50:29.807Z,2.97
2023-03-05T05:51:09.440Z,1.30
2023-03-05T05:53:36.905Z,1.83
2023-03-05T05:56:05.732Z,1.17
2023-03-05T05:58:32.692Z,1.10
2023-03-05T06:00:59.687Z,1.13
2023-03-05T06:03:26.761Z,1.00
2023-03-05T06:05:54.141Z,1.15
2023-03-05T06:08:21.042Z,1.00
2023-03-05T06:10:53.889Z,1.42
2023-03-05T06:13:20.859Z,1.40
2023-03-05T06:15:55.977Z,1.23
2023-03-05T06:18:22.954Z,1.63
2023-03-05T06:20:59.875Z,2.47
2023-03-05T06:23:26.917Z,1.90
2023-03-05T06:25:54.478Z,1.60
2023-03-05T06:28:21.966Z,1.52
2023-03-05T06:30:48.991Z,1.35
2023-03-05T06:33:16.022Z,1.40
2023-03-05T06:33:26.454Z,3.20
2023-03-05T06:35:42.964Z,1.63
2023-03-05T06:35:54.648Z,2.73
2023-03-05T06:38:09.981Z,2.10
2023-03-05T06:38:22.553Z,2.97
2023-03-05T06:40:39.712Z,2.03
2023-03-05T06:43:06.998Z,2.78
2023-03-05T06:43:23.771Z,3.80
2023-03-05T06:45:33.995Z,3.03
2023-03-05T06:45:52.021Z,3.23
2023-03-05T06:48:00.968Z,1.95
2023-03-05T06:50:28.648Z,1.80
2023-03-05T06:50:50.504Z,3.57
2023-03-05T06:52:55.612Z,2.22
2023-03-05T06:55:22.535Z,1.50
2023-03-05T06:55:51.737Z,3.60
2023-03-05T06:57:49.520Z,2.15
2023-03-05T07:00:16.648Z,2.17
2023-03-05T07:00:53.116Z,3.40
2023-03-05T07:02:43.832Z,2.10
2023-03-05T07:03:21.004Z,2.53
2023-03-05T07:05:10.928Z,1.60
2023-03-05T07:07:37.953Z,1.45
2023-03-05T07:08:23.665Z,3.23
2023-03-05T07:10:07.318Z,2.10
2023-03-05T07:10:51.852Z,3.17
2023-03-05T07:12:34.993Z,2.38
2023-03-05T07:15:02.110Z,1.88
2023-03-05T07:15:53.327Z,3.17
2023-03-05T07:17:29.078Z,1.45
2023-03-05T07:19:56.149Z,1.75
2023-03-05T07:22:23.123Z,1.42
2023-03-05T07:24:50.953Z,1.23
2023-03-05T07:26:03.603Z,2.60
2023-03-05T07:27:17.943Z,1.25
2023-03-05T07:28:31.909Z,3.80
2023-03-05T07:29:45.126Z,1.30
2023-03-05T07:31:01.601Z,3.67
2023-03-05T07:32:12.108Z,1.10
2023-03-05T07:34:39.170Z,1.30
2023-03-05T07:36:04.737Z,2.67
2023-03-05T07:37:06.198Z,1.50
2023-03-05T07:38:33.027Z,2.70
2023-03-05T07:39:33.247Z,1.35
2023-03-05T07:41:03.939Z,2.93
2023-03-05T07:42:00.234Z,1.40
2023-03-05T07:43:32.164Z,4.03
2023-03-05T07:44:27.207Z,1.00
2023-03-05T07:46:54.116Z,1.33
2023-03-05T07:49:21.140Z,1.10
2023-03-05T07:51:48.090Z,1.10
2023-03-05T07:53:42.105Z,2.90
2023-03-05T07:54:15.055Z,1.25
2023-03-05T07:56:10.503Z,2.80
2023-03-05T07:56:41.985Z,1.30
2023-03-05T07:58:38.726Z,3.43
2023-03-05T07:59:11.330Z,1.70
2023-03-05T08:01:38.406Z,1.10
2023-03-05T08:04:06.075Z,2.28
2023-03-05T08:06:33.276Z,1.33
2023-03-05T08:08:53.744Z,3.07
2023-03-05T08:09:00.405Z,1.20
2023-03-05T08:11:21.986Z,3.60
2023-03-05T08:11:28.551Z,1.33
2023-03-05T08:13:57.925Z,1.70
2023-03-05T08:16:25.944Z,1.67
2023-03-05T08:18:56.625Z,1.55
2023-03-05T08:21:30.939Z,1.02
2023-03-05T08:21:35.968Z,3.40
2023-03-05T08:23:58.389Z,1.40
2023-03-05T08:24:05.644Z,4.00
2023-03-05T08:26:26.627Z,1.33
2023-03-05T08:26:35.268Z,3.87
2023-03-05T08:28:53.662Z,1.52
2023-03-05T08:29:03.823Z,3.60
2023-03-05T08:31:21.837Z,1.40
2023-03-05T08:33:53.470Z,1.90
2023-03-05T08:36:20.601Z,1.45
2023-03-05T08:36:40.153Z,3.10
2023-03-05T08:38:48.451Z,1.30
2023-03-05T08:39:09.967Z,3.00
2023-03-05T08:41:16.279Z,1.60
2023-03-05T08:43:43.488Z,2.40
2023-03-05T08:46:11.466Z,1.50
2023-03-05T08:46:45.729Z,3.93
2023-03-05T08:48:38.536Z,1.77
2023-03-05T08:49:13.940Z,4.70
2023-03-05T08:51:06.391Z,2.88
2023-03-05T08:53:33.438Z,2.08
2023-03-05T08:56:00.521Z,2.53
2023-03-05T08:58:27.768Z,1.60
2023-03-05T08:59:25.549Z,4.30
2023-03-05T09:00:54.868Z,2.17
2023-03-05T09:01:54.032Z,4.00
2023-03-05T09:03:21.817Z,1.75
2023-03-05T09:05:49.045Z,1.98
2023-03-05T09:08:16.017Z,1.88
2023-03-05T09:10:43.377Z,1.85
2023-03-05T09:13:10.476Z,1.35
2023-03-05T09:15:37.542Z,1.50
2023-03-05T09:17:51.456Z,3.27
2023-03-05T09:18:04.541Z,1.55
2023-03-05T09:20:31.550Z,1.80
2023-03-05T09:22:53.810Z,2.73
2023-03-05T09:22:58.497Z,1.45
2023-03-05T09:25:25.486Z,1.33
2023-03-05T09:27:52.446Z,1.92
2023-03-05T09:28:21.894Z,3.20
2023-03-05T09:30:19.496Z,1.65
2023-03-05T09:32:46.514Z,1.48
2023-03-05T09:35:13.508Z,1.40
2023-03-05T09:37:40.457Z,1.40
2023-03-05T09:40:07.841Z,1.05
2023-03-05T09:42:37.625Z,1.45
2023-03-05T09:45:04.639Z,1.25
2023-03-05T09:47:50.573Z,1.33
2023-03-05T09:50:37.686Z,1.38
2023-03-05T09:53:16.920Z,1.10
2023-03-05T09:55:45.869Z,1.45
2023-03-05T09:58:18.497Z,1.08
2023-03-05T10:00:47.762Z,1.90
2023-03-05T10:01:54.095Z,4.80
2023-03-05T10:03:26.068Z,1.55
2023-03-05T10:06:02.623Z,1.10
2023-03-05T10:08:34.122Z,1.10
2023-03-05T10:11:07.485Z,1.13
2023-03-05T10:13:38.258Z,1.50
2023-03-05T10:16:25.388Z,0.95
2023-03-05T10:18:58.124Z,1.02
2023-03-05T10:21:30.632Z,0.90
2023-03-05T10:24:14.062Z,1.10
2023-03-05T10:26:49.787Z,1.02
2023-03-05T10:29:29.805Z,1.00
2023-03-05T10:32:02.307Z,1.02
2023-03-05T10:34:40.289Z,0.90
2023-03-05T10:37:16.101Z,1.10
2023-03-05T10:39:58.112Z,0.88
2023-03-05T10:42:37.304Z,0.73
2023-03-05T10:45:14.832Z,1.00
2023-03-05T10:47:44.573Z,0.90
2023-03-05T10:50:25.347Z,0.80
2023-03-05T10:53:10.861Z,0.95
2023-03-05T10:55:37.853Z,0.90
2023-03-05T10:58:11.577Z,1.20
2023-03-05T11:00:38.550Z,1.63
2023-03-05T11:03:07.706Z,1.40
2023-03-05T11:05:41.354Z,1.35
2023-03-05T11:08:20.330Z,1.40
2023-03-05T11:10:47.311Z,1.58
2023-03-05T11:13:27.734Z,1.45
2023-03-05T11:16:01.268Z,1.42
2023-03-05T11:18:34.173Z,1.30
2023-03-05T11:21:12.842Z,1.50
2023-03-05T11:23:39.789Z,1.40
2023-03-05T11:25:16.489Z,4.90
2023-03-05T11:26:12.788Z,0.70
2023-03-05T11:27:51.985Z,5.40
2023-03-05T11:28:41.026Z,0.80
2023-03-05T11:30:23.096Z,5.47
2023-03-05T11:31:17.205Z,0.80
2023-03-05T11:33:58.470Z,1.30
2023-03-05T11:36:27.336Z,0.90
2023-03-05T11:39:07.309Z,1.13
2023-03-05T11:40:35.727Z,5.20
2023-03-05T11:41:52.949Z,1.00
2023-03-05T11:43:05.011Z,5.70
2023-03-05T11:44:28.910Z,0.90
2023-03-05T11:47:02.268Z,1.10
2023-03-05T11:49:31.673Z,0.75
2023-03-05T11:50:39.815Z,6.30
2023-03-05T11:52:02.964Z,0.70
2023-03-05T11:54:34.439Z,0.90
2023-03-05T11:57:02.883Z,0.68
2023-03-05T11:59:32.619Z,1.23
2023-03-05T12:01:59.867Z,0.88
2023-03-05T12:04:26.954Z,0.93
2023-03-05T12:06:57.521Z,1.13
2023-03-05T12:09:29.017Z,0.70
2023-03-05T12:12:10.428Z,0.60
2023-03-05T12:14:45.142Z,0.75
2023-03-05T12:17:19.628Z,0.90
2023-03-05T12:19:52.837Z,0.90
2023-03-05T12:22:21.849Z,1.20
2023-03-05T12:24:48.930Z,0.70
2023-03-05T12:27:17.102Z,0.90
2023-03-05T12:29:45.789Z,1.50
2023-03-05T12:32:25.436Z,1.17
2023-03-05T12:33:31.700Z,6.30
2023-03-05T12:35:00.247Z,1.00
2023-03-05T12:36:22.651Z,5.63
2023-03-05T12:37:27.213Z,1.20
2023-03-05T12:40:20.450Z,1.63
2023-03-05T12:42:48.722Z,0.60
2023-03-05T12:44:27.242Z,5.20
2023-03-05T12:45:16.195Z,1.30
2023-03-05T12:47:19.955Z,5.30
2023-03-05T12:47:44.241Z,0.77
2023-03-05T12:49:51.943Z,6.60
2023-03-05T12:50:29.396Z,0.82
2023-03-05T12:53:02.715Z,1.33
2023-03-05T12:55:35.747Z,1.00
2023-03-05T12:57:36.677Z,5.77
2023-03-05T12:58:11.627Z,1.25
2023-03-05T13:00:10.974Z,6.43
2023-03-05T13:00:45.620Z,1.13
2023-03-05T13:02:42.769Z,6.00
2023-03-05T13:03:15.966Z,1.15
2023-03-05T13:05:49.160Z,1.52
2023-03-05T13:08:15.872Z,6.17
2023-03-05T13:08:22.062Z,1.30
2023-03-05T13:10:53.372Z,0.95
2023-03-05T13:13:21.610Z,0.95
2023-03-05T13:15:49.796Z,1.17
2023-03-05T13:15:53.453Z,5.47
2023-03-05T13:18:21.101Z,1.00
2023-03-05T13:20:52.184Z,1.00
2023-03-05T13:21:02.670Z,4.40
2023-03-05T13:23:26.457Z,2.40
2023-03-05T13:25:59.255Z,1.55
2023-03-05T13:26:19.826Z,4.67
2023-03-05T13:28:26.514Z,0.80
2023-03-05T13:29:04.516Z,3.57
2023-03-05T13:31:01.050Z,0.90
2023-03-05T13:31:50.981Z,3.63
2023-03-05T13:33:29.781Z,1.00
2023-03-05T13:35:56.998Z,1.60
2023-03-05T13:38:47.337Z,3.05
2023-03-05T13:41:30.292Z,1.50
2023-03-05T13:42:12.728Z,4.40
2023-03-05T13:43:58.670Z,1.13
2023-03-05T13:46:33.287Z,1.40
2023-03-05T13:49:20.664Z,1.10
2023-03-05T13:51:49.262Z,1.27
2023-03-05T13:52:48.300Z,3.33
2023-03-05T13:54:17.069Z,1.25
2023-03-05T13:55:18.284Z,3.53
2023-03-05T13:56:54.761Z,0.98
2023-03-05T13:57:50.236Z,4.17
2023-03-05T13:59:22.706Z,1.55
2023-03-05T14:00:37.946Z,3.97
2023-03-05T14:01:53.510Z,1.13
2023-03-05T14:04:28.469Z,1.45
2023-03-05T14:05:47.846Z,3.07
2023-03-05T14:06:58.741Z,1.95
2023-03-05T14:08:21.869Z,3.40
2023-03-05T14:09:25.638Z,1.75
2023-03-05T14:10:51.117Z,3.40
2023-03-05T14:12:13.069Z,1.92
2023-03-05T14:13:41.852Z,4.27
2023-03-05T14:14:40.105Z,1.30
2023-03-05T14:17:23.570Z,1.00
2023-03-05T14:19:50.616Z,1.17
2023-03-05T14:22:31.706Z,1.13
2023-03-05T14:24:00.049Z,4.73
2023-03-05T14:24:58.717Z,1.10
2023-03-05T14:26:30.918Z,3.40
2023-03-05T14:27:25.685Z,0.90
2023-03-05T14:29:52.799Z,0.90
2023-03-05T14:32:36.700Z,1.48
2023-03-05T14:34:09.723Z,4.10
2023-03-05T14:35:06.166Z,1.30
2023-03-05T14:36:39.252Z,4.00
2023-03-05T14:37:35.570Z,0.80
2023-03-05T14:40:07.676Z,1.10
2023-03-05T14:42:39.533Z,1.00
2023-03-05T14:45:15.049Z,0.95
2023-03-05T14:47:19.606Z,4.72
2023-03-05T14:47:42.072Z,1.23
2023-03-05T14:49:48.057Z,4.03
2023-03-05T14:50:10.835Z,1.27
2023-03-05T14:52:37.932Z,1.38
2023-03-05T14:54:46.660Z,5.40
2023-03-05T14:55:06.717Z,1.38
2023-03-05T14:57:33.728Z,2.00
2023-03-05T15:00:00.652Z,1.17
2023-03-05T15:02:28.010Z,0.80
2023-03-05T15:02:30.395Z,5.37
2023-03-05T15:04:55.050Z,2.15
2023-03-05T15:05:02.897Z,5.77
2023-03-05T15:07:24.286Z,1.00
2023-03-05T15:09:51.367Z,1.00
2023-03-05T15:10:27.412Z,5.67
2023-03-05T15:12:18.792Z,0.85
2023-03-05T15:14:45.800Z,0.80
2023-03-05T15:15:44.891Z,5.63
2023-03-05T15:17:20.415Z,1.67
2023-03-05T15:18:27.770Z,5.20
2023-03-05T15:19:47.691Z,0.80
2023-03-05T15:22:14.810Z,1.20
2023-03-05T15:23:36.519Z,5.70
2023-03-05T15:24:42.209Z,1.38
2023-03-05T15:27:09.224Z,1.25
2023-03-05T15:29:36.158Z,1.70
2023-03-05T15:31:48.671Z,6.17
2023-03-05T15:32:04.778Z,1.80
2023-03-05T15:34:33.628Z,1.13
2023-03-05T15:34:46.831Z,6.00
2023-03-05T15:37:00.848Z,0.88
2023-03-05T15:37:17.391Z,6.13
2023-03-05T15:39:27.848Z,1.83
2023-03-05T15:41:55.059Z,2.25
2023-03-05T15:42:21.610Z,5.60
2023-03-05T15:44:22.064Z,1.55
2023-03-05T15:44:58.190Z,6.20
2023-03-05T15:46:49.030Z,1.30
2023-03-05T15:47:27.875Z,5.30
2023-03-05T15:49:16.298Z,1.60
2023-03-05T15:51:43.484Z,1.95
2023-03-05T15:54:10.517Z,1.45
2023-03-05T15:56:37.857Z,2.60
2023-03-05T15:59:05.078Z,1.17
2023-03-05T16:01:32.196Z,2.00
2023-03-05T16:03:59.438Z,1.70
2023-03-05T16:06:26.731Z,1.08
2023-03-05T16:08:56.195Z,2.70
2023-03-05T16:11:23.177Z,2.20
2023-03-05T16:13:49.225Z,4.53
2023-03-05T16:13:50.537Z,1.50
2023-03-05T16:16:17.637Z,1.23
2023-03-05T16:16:37.902Z,6.13
2023-03-05T16:18:45.069Z,1.13
2023-03-05T16:19:09.035Z,5.00
2023-03-05T16:21:13.660Z,2.33
2023-03-05T16:23:40.658Z,1.90
2023-03-05T16:24:11.321Z,4.50
2023-03-05T16:26:08.858Z,1.92
2023-03-05T16:28:35.933Z,1.70
2023-03-05T16:29:46.491Z,5.97
2023-03-05T16:31:03.064Z,1.88
2023-03-05T16:32:16.682Z,4.90
2023-03-05T16:33:30.047Z,1.27
2023-03-05T16:34:47.811Z,3.97
2023-03-05T16:36:20.705Z,1.48
2023-03-05T16:37:28.904Z,5.27
2023-03-05T16:38:51.631Z,1.75
2023-03-05T16:41:21.984Z,2.10
2023-03-05T16:42:49.556Z,6.00
2023-03-05T16:43:50.623Z,2.17
2023-03-05T16:46:18.070Z,2.10
2023-03-05T16:47:56.956Z,5.80
2023-03-05T16:48:45.105Z,2.22
2023-03-05T16:50:39.781Z,6.40
2023-03-05T16:51:12.583Z,2.42
2023-03-05T16:53:39.787Z,1.98
2023-03-05T16:56:07.663Z,4.10
2023-03-05T16:58:35.382Z,2.90
2023-03-05T16:58:38.600Z,5.87
2023-03-05T17:01:02.409Z,3.13
2023-03-05T17:01:11.683Z,5.27
2023-03-05T17:03:29.663Z,2.30
2023-03-05T17:03:52.165Z,6.10
2023-03-05T17:05:56.661Z,3.05
2023-03-05T17:08:24.398Z,3.40
2023-03-05T17:10:51.789Z,3.50
2023-03-05T17:13:18.783Z,3.38
2023-03-05T17:15:45.778Z,2.83
2023-03-05T17:18:12.812Z,3.42
2023-03-05T17:20:40.661Z,3.13
2023-03-05T17:23:07.682Z,3.67
2023-03-05T17:24:48.366Z,5.70
2023-03-05T17:25:34.942Z,5.10
2023-03-05T17:28:01.895Z,2.85
2023-03-05T17:30:31.261Z,4.45
2023-03-05T17:32:58.267Z,1.90
2023-03-05T17:35:25.539Z,2.35
2023-03-05T17:37:55.101Z,1.65
2023-03-05T17:40:22.509Z,1.63
2023-03-05T17:41:08.717Z,5.37
2023-03-05T17:42:49.597Z,1.80
2023-03-05T17:43:42.239Z,4.70
2023-03-05T17:45:17.236Z,2.33
2023-03-05T17:46:27.670Z,5.13
2023-03-05T17:47:44.245Z,2.75
2023-03-05T17:50:12.170Z,2.10
2023-03-05T17:52:40.966Z,2.50
2023-03-05T17:55:10.014Z,2.30
2023-03-05T17:57:37.946Z,2.17
2023-03-05T18:00:05.862Z,2.50
2023-03-05T18:02:33.497Z,2.58
2023-03-05T18:05:01.674Z,3.65
2023-03-05T18:07:29.645Z,2.60
2023-03-05T18:09:56.636Z,2.78
2023-03-05T18:12:23.658Z,2.70
2023-03-05T18:14:51.407Z,3.30
2023-03-05T18:17:18.365Z,3.70
2023-03-05T18:19:45.344Z,5.25
2023-03-05T18:22:12.342Z,6.45
2023-03-05T18:24:39.301Z,4.70
2023-03-05T18:27:07.672Z,4.55
2023-03-05T18:29:34.633Z,4.55
2023-03-05T18:32:01.632Z,4.72
2023-03-05T18:34:29.434Z,4.30
2023-03-05T18:34:55.366Z,4.00
2023-03-05T18:36:56.424Z,3.95
2023-03-05T18:37:23.622Z,4.53
2023-03-05T18:39:23.553Z,3.33
2023-03-05T18:39:51.918Z,4.30
2023-03-05T18:41:50.857Z,4.50
2023-03-05T18:44:19.744Z,5.68
2023-03-05T18:44:53.212Z,3.90
2023-03-05T18:46:47.663Z,6.20
2023-03-05T18:47:21.377Z,3.47
2023-03-05T18:49:14.650Z,6.15
2023-03-05T18:49:51.485Z,5.07
2023-03-05T18:51:42.260Z,5.22
2023-03-05T18:52:21.056Z,5.03
2023-03-05T18:54:09.540Z,6.07
2023-03-05T18:54:49.493Z,5.63
2023-03-05T18:56:36.629Z,5.07
2023-03-05T18:57:18.913Z,6.10
2023-03-05T18:59:03.671Z,6.00
2023-03-05T18:59:47.137Z,6.03
2023-03-05T19:01:30.824Z,10.13
2023-03-05T19:02:15.805Z,5.17
2023-03-05T19:03:58.204Z,11.35
2023-03-05T19:04:44.016Z,5.43
2023-03-05T19:06:25.186Z,11.40
2023-03-05T19:07:12.751Z,4.20
2023-03-05T19:08:57.214Z,13.38
2023-03-05T19:09:53.417Z,4.80
2023-03-05T19:11:24.454Z,12.02
2023-03-05T19:12:21.786Z,4.97
2023-03-05T19:13:52.163Z,10.60
2023-03-05T19:14:50.064Z,5.50
2023-03-05T19:16:23.566Z,10.45
2023-03-05T19:17:18.456Z,5.90
2023-03-05T19:18:59.722Z,9.80
2023-03-05T19:19:50.936Z,6.33
2023-03-05T19:21:26.780Z,9.35
2023-03-05T19:22:19.131Z,4.83
2023-03-05T19:23:53.795Z,8.98
2023-03-05T19:24:48.714Z,4.57
2023-03-05T19:26:20.780Z,8.30
2023-03-05T19:27:16.969Z,4.67
2023-03-05T19:28:50.655Z,8.15
2023-03-05T19:29:45.503Z,5.63
2023-03-05T19:31:17.765Z,7.07
2023-03-05T19:32:15.671Z,6.17
2023-03-05T19:33:44.745Z,7.35
2023-03-05T19:34:44.910Z,5.93
2023-03-05T19:36:12.332Z,7.35
2023-03-05T19:37:13.120Z,6.27
2023-03-05T19:38:39.443Z,7.65
2023-03-05T19:39:41.365Z,6.27
2023-03-05T19:41:06.546Z,6.97
2023-03-05T19:42:11.062Z,7.33
2023-03-05T19:43:33.554Z,7.50
2023-03-05T19:44:39.318Z,7.23
2023-03-05T19:46:01.899Z,8.57
2023-03-05T19:47:07.756Z,8.00
2023-03-05T19:48:29.055Z,8.43
2023-03-05T19:49:35.980Z,7.40
2023-03-05T19:50:56.106Z,8.90
2023-03-05T19:52:06.084Z,8.10
2023-03-05T19:53:23.081Z,8.95
2023-03-05T19:54:34.360Z,7.30
2023-03-05T19:55:50.197Z,8.48
2023-03-05T19:57:02.532Z,7.83
2023-03-05T19:58:17.195Z,7.50
2023-03-05T19:59:32.068Z,8.60
2023-03-05T20:00:44.295Z,7.97
2023-03-05T20:02:02.082Z,7.07
2023-03-05T20:03:12.067Z,8.38
2023-03-05T20:04:32.632Z,7.27
2023-03-05T20:05:41.031Z,7.85
2023-03-05T20:07:00.846Z,7.50
2023-03-05T20:08:08.252Z,8.55
2023-03-05T20:09:29.133Z,7.47
2023-03-05T20:10:35.206Z,8.60
2023-03-05T20:11:58.349Z,7.43
2023-03-05T20:13:02.381Z,7.10
2023-03-05T20:14:26.565Z,10.67
2023-03-05T20:15:29.718Z,7.72
2023-03-05T20:16:56.747Z,7.93
2023-03-05T20:18:00.003Z,6.93
2023-03-05T20:19:24.943Z,8.20
2023-03-05T20:20:27.850Z,6.70
2023-03-05T20:21:53.271Z,9.03
2023-03-05T20:22:54.920Z,7.13
2023-03-05T20:24:22.280Z,7.43
2023-03-05T20:25:24.606Z,6.80
2023-03-05T20:26:50.314Z,8.80
2023-03-05T20:27:51.964Z,6.00
2023-03-05T20:29:19.029Z,9.40
2023-03-05T20:30:19.372Z,6.65
2023-03-05T20:31:49.992Z,9.70
2023-03-05T20:32:46.371Z,6.60
2023-03-05T20:34:22.421Z,9.17
2023-03-05T20:35:14.785Z,7.35
2023-03-05T20:36:52.998Z,8.50
2023-03-05T20:37:49.276Z,8.30
2023-03-05T20:39:21.159Z,8.10
2023-03-05T20:40:16.910Z,8.05
2023-03-05T20:41:51.047Z,10.23
2023-03-05T20:42:43.990Z,8.25
2023-03-05T20:44:19.251Z,9.43
2023-03-05T20:45:11.196Z,8.25
2023-03-05T20:46:59.557Z,8.33
2023-03-05T20:47:42.143Z,7.43
2023-03-05T20:49:29.137Z,7.60
2023-03-05T20:50:12.709Z,6.50
2023-03-05T20:51:57.393Z,9.07
2023-03-05T20:52:39.636Z,5.70
2023-03-05T20:54:27.246Z,10.00
2023-03-05T20:55:07.693Z,7.70
2023-03-05T20:56:55.480Z,9.50
2023-03-05T20:57:37.532Z,7.55
2023-03-05T20:59:24.718Z,7.67
2023-03-05T21:00:05.224Z,7.93
2023-03-05T21:01:53.044Z,9.57
2023-03-05T21:02:32.261Z,7.72
2023-03-05T21:04:21.384Z,8.50
2023-03-05T21:04:59.275Z,6.93
2023-03-05T21:06:54.373Z,7.13
2023-03-05T21:07:28.342Z,6.50
2023-03-05T21:09:22.905Z,8.47
2023-03-05T21:09:55.290Z,6.45
2023-03-05T21:11:52.379Z,8.83
2023-03-05T21:12:22.293Z,6.78
2023-03-05T21:14:20.519Z,7.23
2023-03-05T21:14:49.335Z,6.35
2023-03-05T21:16:48.794Z,9.47
2023-03-05T21:17:17.754Z,6.82
2023-03-05T21:19:17.300Z,9.03
2023-03-05T21:19:44.689Z,5.80
2023-03-05T21:21:45.764Z,8.43
2023-03-05T21:22:11.746Z,6.05
2023-03-05T21:24:17.053Z,8.87
2023-03-05T21:24:53.858Z,6.45
2023-03-05T21:26:45.260Z,8.50
2023-03-05T21:27:20.884Z,5.93
2023-03-05T21:29:13.709Z,8.60
2023-03-05T21:29:47.923Z,6.90
2023-03-05T21:31:42.113Z,7.77
2023-03-05T21:32:15.219Z,7.00
2023-03-05T21:34:10.421Z,8.60
2023-03-05T21:34:43.427Z,5.30
2023-03-05T21:36:38.323Z,9.63
2023-03-05T21:37:10.484Z,5.95
2023-03-05T21:39:06.740Z,9.37
2023-03-05T21:39:37.491Z,8.90
2023-03-05T21:41:38.735Z,9.70
2023-03-05T21:42:05.067Z,8.40
2023-03-05T21:44:06.928Z,9.70
2023-03-05T21:44:32.008Z,7.57
2023-03-05T21:46:35.136Z,9.83
2023-03-05T21:46:58.940Z,7.32
2023-03-05T21:49:03.315Z,9.60
2023-03-05T21:49:26.089Z,6.25
2023-03-05T21:51:38.749Z,8.23
2023-03-05T21:52:05.841Z,6.95
2023-03-05T21:54:08.922Z,9.70
2023-03-05T21:54:32.819Z,6.10
2023-03-05T21:56:38.586Z,9.97
2023-03-05T21:57:00.378Z,6.50
2023-03-05T21:59:06.867Z,9.17
2023-03-05T21:59:27.609Z,7.30
2023-03-05T22:01:35.116Z,9.87
2023-03-05T22:01:54.677Z,7.63